Time;durP1;ratioP1;P1;durP2;ratioP2;P2;SDS_P1;SDS_P2;PMS_P1;PMS_P2;Temp;Humidity;BMP_temperature;BMP_pressure;BME280_temperature;BME280_humidity;BME280_pressure;Samples;Min_cycle;Max_cycle;Signal;HPM_P1;HPM_P2
2022/08/28 00:01:54;;;;;;;10.77;5.80;;;;;;;24.81;64.76;99135.97;4993856;28;20203;-72
2022/08/28 00:04:21;;;;;;;8.60;6.03;;;;;;;24.79;65.08;99131.94;5011293;28;20193;-72
2022/08/28 00:06:48;;;;;;;16.20;6.50;;;;;;;24.77;65.94;99129.50;5012999;28;20635;-72
2022/08/28 00:09:15;;;;;;;8.20;6.57;;;;;;;24.74;65.58;99127.38;5012804;28;20193;-72
2022/08/28 00:11:43;;;;;;;13.17;6.43;;;;;;;24.66;65.73;99130.78;5013232;28;20278;-72
2022/08/28 00:14:11;;;;;;;8.33;6.33;;;;;;;24.66;65.55;99125.34;5013049;28;20271;-72
2022/08/28 00:16:38;;;;;;;14.57;6.13;;;;;;;24.67;65.60;99126.94;5013877;28;20288;-72
2022/08/28 00:19:05;;;;;;;10.60;6.33;;;;;;;24.66;65.45;99127.25;5012905;28;20228;-72
2022/08/28 00:21:33;;;;;;;12.73;5.97;;;;;;;24.61;65.81;99122.72;5013133;28;20205;-71
2022/08/28 00:24:00;;;;;;;11.83;6.47;;;;;;;24.61;66.53;99125.44;5012888;28;20209;-72
2022/08/28 00:29:13;;;;;;;13.27;5.97;;;;;;;24.55;66.09;99125.78;5013570;28;20354;-72
2022/08/28 00:31:39;;;;;;;17.20;6.17;;;;;;;24.53;66.72;99128.78;5012566;28;20276;-71
2022/08/28 00:34:07;;;;;;;9.53;5.73;;;;;;;24.54;66.29;99121.44;5013016;28;20232;-72
2022/08/28 00:36:34;;;;;;;12.87;7.00;;;;;;;24.54;65.94;99127.66;5012951;28;20201;-72
2022/08/28 00:39:00;;;;;;;12.00;6.17;;;;;;;24.51;65.81;99128.25;5012389;28;20255;-72
2022/08/28 00:41:30;;;;;;;12.63;6.27;;;;;;;24.46;66.05;99130.25;5012761;28;20197;-70
2022/08/28 00:44:10;;;;;;;17.80;6.50;;;;;;;24.37;66.07;99123.88;5013114;28;20225;-72
2022/08/28 00:46:40;;;;;;;9.20;6.20;;;;;;;24.34;65.76;99129.91;5013554;28;20288;-71
2022/08/28 00:49:07;;;;;;;7.63;6.63;;;;;;;24.31;65.45;99131.31;5013323;28;20201;-72
2022/08/28 00:54:21;;;;;;;16.33;5.97;;;;;;;24.27;65.74;99129.44;5012961;28;20191;-72
2022/08/28 00:56:50;;;;;;;13.57;5.63;;;;;;;24.27;65.97;99132.97;5012588;28;20248;-71
2022/08/28 00:59:20;;;;;;;15.00;6.87;;;;;;;24.27;66.30;99132.97;5013167;28;20270;-71
2022/08/28 01:01:49;;;;;;;13.17;6.60;;;;;;;24.28;66.51;99137.31;5012517;28;20271;-71
2022/08/28 01:04:18;;;;;;;12.57;6.07;;;;;;;24.28;66.22;99136.50;4995712;28;20204;-72
2022/08/28 01:06:50;;;;;;;7.50;6.07;;;;;;;24.08;66.29;99115.88;4993074;28;20201;-72
2022/08/28 01:09:16;;;;;;;9.60;6.17;;;;;;;24.26;66.18;99139.50;4993422;28;20194;-72
2022/08/28 01:11:45;;;;;;;15.60;5.60;;;;;;;24.21;66.41;99141.47;4992840;28;20575;-71
2022/08/28 01:14:13;;;;;;;12.20;6.30;;;;;;;24.21;66.83;99142.28;4993035;28;20271;-72
2022/08/28 01:16:42;;;;;;;11.23;5.90;;;;;;;24.16;67.03;99145.06;4992993;28;20198;-72
2022/08/28 01:19:18;;;;;;;8.70;6.20;;;;;;;24.14;67.37;99141.84;4992785;28;20236;-72
2022/08/28 01:21:53;;;;;;;13.40;5.90;;;;;;;24.12;66.95;99138.63;4997464;28;20248;-72
2022/08/28 01:24:21;;;;;;;10.27;6.63;;;;;;;24.06;66.89;99145.19;4996977;28;20247;-71
2022/08/28 01:26:48;;;;;;;7.80;5.57;;;;;;;23.92;66.87;99144.31;4996551;28;20728;-72
2022/08/28 01:29:16;;;;;;;6.77;5.97;;;;;;;23.80;67.11;99152.03;4997015;28;20229;-71
2022/08/28 01:31:43;;;;;;;15.33;5.83;;;;;;;23.65;67.33;99149.47;4996890;28;20225;-71
2022/08/28 01:34:11;;;;;;;9.30;6.07;;;;;;;23.63;67.96;99154.41;4996595;28;20193;-71
2022/08/28 01:36:38;;;;;;;14.13;5.80;;;;;;;23.57;67.75;99155.53;4996636;28;20228;-71
2022/08/28 01:39:09;;;;;;;8.50;5.03;;;;;;;23.58;67.78;99170.75;4996635;28;20279;-71
2022/08/28 01:41:39;;;;;;;8.53;6.10;;;;;;;23.58;67.83;99161.78;4997223;28;20200;-71
2022/08/28 01:44:06;;;;;;;9.47;6.07;;;;;;;23.55;67.99;99170.47;4996179;28;20241;-71
2022/08/28 01:46:33;;;;;;;7.93;6.17;;;;;;;23.53;68.19;99168.06;4996173;28;20192;-71
2022/08/28 01:49:00;;;;;;;15.97;5.80;;;;;;;23.55;68.09;99176.72;4996380;28;20274;-71
2022/08/28 01:51:27;;;;;;;9.00;5.50;;;;;;;23.48;68.69;99165.41;4996002;28;20778;-71
2022/08/28 01:53:54;;;;;;;13.13;6.17;;;;;;;23.28;68.89;99164.81;4996247;28;20256;-70
2022/08/28 01:56:20;;;;;;;9.93;5.97;;;;;;;23.20;69.47;99165.44;4996245;28;20204;-71
2022/08/28 01:58:49;;;;;;;9.10;6.03;;;;;;;23.03;70.32;99163.09;4996168;28;20201;-71
2022/08/28 02:01:18;;;;;;;9.93;6.07;;;;;;;22.95;70.56;99166.44;4996218;28;20253;-71
2022/08/28 02:03:45;;;;;;;12.63;7.03;;;;;;;22.92;70.48;99168.91;5008621;28;20245;-71
2022/08/28 02:06:12;;;;;;;6.60;5.93;;;;;;;22.88;71.16;99155.13;5016267;28;20201;-70
2022/08/28 02:08:39;;;;;;;15.63;5.90;;;;;;;22.88;71.03;99171.38;5015444;28;20198;-71
2022/08/28 02:11:08;;;;;;;10.77;5.97;;;;;;;22.82;71.42;99169.78;5015240;28;20223;-71
2022/08/28 02:13:36;;;;;;;6.03;5.43;;;;;;;22.69;71.76;99156.91;5015449;28;20190;-71
2022/08/28 02:16:04;;;;;;;7.80;5.60;;;;;;;22.61;71.96;99165.63;5015832;28;20659;-71
2022/08/28 02:18:31;;;;;;;8.53;6.07;;;;;;;22.56;72.48;99165.66;5015640;28;20203;-71
2022/08/28 02:20:58;;;;;;;10.70;6.33;;;;;;;22.57;72.59;99166.44;5015142;28;20662;-71
2022/08/28 02:23:25;;;;;;;9.17;6.40;;;;;;;22.60;72.69;99169.44;5015042;28;20256;-71
2022/08/28 02:25:51;;;;;;;15.47;5.87;;;;;;;22.62;72.58;99167.22;5014954;28;20732;-71
2022/08/28 02:28:18;;;;;;;9.73;6.40;;;;;;;22.64;72.55;99169.66;5015194;28;20205;-71
2022/08/28 02:30:45;;;;;;;8.27;5.90;;;;;;;22.49;72.76;99156.22;5014920;28;20190;-71
2022/08/28 02:33:15;;;;;;;10.10;6.37;;;;;;;22.63;72.87;99168.88;5015594;28;20195;-71
2022/08/28 02:35:42;;;;;;;11.67;5.93;;;;;;;22.65;72.82;99174.81;5015754;28;20199;-71
2022/08/28 02:38:09;;;;;;;10.07;6.00;;;;;;;22.67;72.92;99169.91;5014720;28;20195;-71
2022/08/28 02:40:36;;;;;;;11.80;6.27;;;;;;;22.75;72.81;99177.41;5014718;28;20656;-71
2022/08/28 02:43:04;;;;;;;11.33;6.27;;;;;;;22.81;72.59;99170.88;5014615;28;20290;-71
2022/08/28 02:45:31;;;;;;;12.90;6.70;;;;;;;22.85;72.56;99174.66;5015290;28;20623;-72
2022/08/28 02:48:00;;;;;;;9.60;5.67;;;;;;;22.90;72.27;99169.19;5015702;28;20256;-71
2022/08/28 02:50:29;;;;;;;10.43;5.90;;;;;;;22.91;72.33;99170.78;5014826;28;20754;-71
2022/08/28 02:52:57;;;;;;;10.37;6.27;;;;;;;22.90;72.26;99173.78;5015016;28;20226;-71
2022/08/28 02:55:24;;;;;;;9.47;5.70;;;;;;;22.88;72.15;99170.56;5014726;28;20198;-71
2022/08/28 02:57:53;;;;;;;10.23;6.53;;;;;;;22.93;72.24;99173.22;5015037;28;20222;-72
2022/08/28 03:00:24;;;;;;;14.07;6.43;;;;;;;22.97;71.88;99172.38;5014546;28;20201;-71
2022/08/28 03:02:52;;;;;;;18.13;6.07;;;;;;;22.97;71.62;99174.28;5009309;28;20195;-72
2022/08/28 03:05:21;;;;;;;13.50;5.97;;;;;;;22.94;71.63;99162.09;4994984;28;20255;-72
2022/08/28 03:07:50;;;;;;;14.33;5.93;;;;;;;22.96;71.65;99168.06;4994691;28;20254;-72
2022/08/28 03:10:17;;;;;;;17.50;6.33;;;;;;;22.99;71.70;99182.94;4994825;28;20196;-72
2022/08/28 03:12:44;;;;;;;10.63;5.60;;;;;;;23.02;71.44;99179.63;4995090;28;20295;-71
2022/08/28 03:15:11;;;;;;;6.63;5.93;;;;;;;23.04;71.50;99180.19;4994475;28;20199;-71
2022/08/28 03:17:38;;;;;;;10.73;5.87;;;;;;;23.04;71.25;99183.72;4994532;28;20665;-71
2022/08/28 03:20:06;;;;;;;14.13;6.57;;;;;;;23.06;70.96;99189.66;4994225;28;20663;-71
2022/08/28 03:25:19;;;;;;;10.77;5.67;;;;;;;22.98;71.46;99182.13;4994506;28;20188;-71
2022/08/28 03:27:45;;;;;;;14.17;6.30;;;;;;;23.00;71.41;99185.38;4994251;28;20196;-73
2022/08/28 03:30:13;;;;;;;10.73;5.87;;;;;;;23.00;71.02;99185.38;4994575;28;20244;-72
2022/08/28 03:32:40;;;;;;;10.67;5.87;;;;;;;22.97;71.01;99190.53;4994154;28;20221;-71
2022/08/28 03:35:07;;;;;;;10.57;5.23;;;;;;;22.95;70.94;99196.22;4994128;28;20666;-72
2022/08/28 03:37:34;;;;;;;12.70;5.90;;;;;;;22.94;70.98;99193.78;4995025;28;20196;-72
2022/08/28 03:40:01;;;;;;;12.73;6.00;;;;;;;22.95;70.61;99193.53;4994278;28;20196;-71
2022/08/28 03:42:29;;;;;;;9.43;6.03;;;;;;;22.93;70.25;99200.31;4993801;28;20634;-72
2022/08/28 03:44:56;;;;;;;10.73;5.77;;;;;;;22.87;70.44;99202.25;4994037;28;20227;-71
2022/08/28 03:47:23;;;;;;;10.93;6.50;;;;;;;22.87;70.06;99194.13;4994264;28;20196;-72
2022/08/28 03:49:55;;;;;;;11.30;6.57;;;;;;;22.82;69.25;99202.28;4993835;28;20660;-72
2022/08/28 03:52:22;;;;;;;7.10;5.80;;;;;;;22.79;69.10;99200.13;4994251;28;20220;-71
2022/08/28 03:54:49;;;;;;;13.50;6.50;;;;;;;22.78;69.64;99208.56;4993895;28;20250;-71
2022/08/28 03:57:18;;;;;;;10.93;6.07;;;;;;;22.82;69.58;99206.91;4993680;28;20191;-71
2022/08/28 03:59:47;;;;;;;14.27;5.97;;;;;;;22.89;69.81;99202.78;4994084;28;20202;-71
2022/08/28 04:02:13;;;;;;;15.03;6.67;;;;;;;22.93;70.26;99208.44;4994008;28;20756;-71
2022/08/28 04:04:40;;;;;;;13.03;7.07;;;;;;;22.99;69.87;99213.53;5012963;28;20197;-72
2022/08/28 04:07:07;;;;;;;11.00;6.20;;;;;;;23.06;69.82;99214.03;5013895;28;20196;-72
2022/08/28 04:09:33;;;;;;;11.70;6.70;;;;;;;23.16;69.51;99216.66;5013470;28;20194;-71
2022/08/28 04:12:00;;;;;;;13.70;6.80;;;;;;;23.28;69.37;99224.44;5013033;28;20765;-72
2022/08/28 04:14:27;;;;;;;12.97;6.03;;;;;;;23.46;68.97;99224.56;5013272;28;20271;-72
2022/08/28 04:16:55;;;;;;;12.63;6.50;;;;;;;23.69;68.05;99225.69;5013020;28;20736;-72
2022/08/28 04:19:22;;;;;;;16.70;7.23;;;;;;;23.88;66.80;99221.94;5013157;28;20265;-72
2022/08/28 04:21:48;;;;;;;15.77;6.53;;;;;;;24.08;65.82;99231.75;5014017;28;20196;-71
2022/08/28 04:24:15;;;;;;;11.03;6.30;;;;;;;24.33;65.23;99226.81;5013834;28;20200;-71
2022/08/28 04:26:42;;;;;;;17.57;6.80;;;;;;;24.65;64.10;99243.25;5013103;28;20196;-72
2022/08/28 04:29:09;;;;;;;13.67;6.30;;;;;;;24.89;63.57;99235.84;5012587;28;20291;-71
2022/08/28 04:31:36;;;;;;;9.13;6.70;;;;;;;25.20;62.31;99240.78;5013212;28;20195;-72
2022/08/28 04:34:07;;;;;;;14.17;6.57;;;;;;;25.63;61.70;99253.13;5013013;28;20258;-72
2022/08/28 04:36:34;;;;;;;10.03;6.57;;;;;;;25.96;58.95;99260.16;5012962;28;20292;-73
2022/08/28 04:39:01;;;;;;;14.03;5.70;;;;;;;26.12;58.42;99250.56;5013416;28;20268;-73
2022/08/28 04:41:29;;;;;;;15.53;5.83;;;;;;;26.43;56.99;99260.56;5012837;28;20256;-72
2022/08/28 04:43:57;;;;;;;13.03;5.47;;;;;;;26.69;55.73;99260.81;5013152;28;20193;-71
2022/08/28 04:46:24;;;;;;;10.03;5.40;;;;;;;26.97;54.94;99265.09;5012453;28;20658;-71
2022/08/28 04:48:52;;;;;;;10.67;5.87;;;;;;;27.21;52.48;99271.09;5012562;28;20194;-71
2022/08/28 04:51:20;;;;;;;8.13;5.90;;;;;;;27.61;52.23;99270.09;5012574;28;20194;-71
2022/08/28 04:53:47;;;;;;;12.73;5.90;;;;;;;28.00;51.36;99286.53;5012229;28;20272;-70
2022/08/28 04:56:15;;;;;;;11.43;5.73;;;;;;;28.43;50.94;99276.59;5012536;28;20199;-72
2022/08/28 04:58:44;;;;;;;19.00;5.90;;;;;;;28.84;48.00;99290.66;5012473;28;20256;-73
2022/08/28 05:01:14;;;;;;;13.50;5.67;;;;;;;29.05;47.13;99283.47;5012197;28;20728;-73
2022/08/28 05:03:41;;;;;;;12.73;5.33;;;;;;;29.34;46.48;99286.34;5000878;28;20237;-72
2022/08/28 05:06:08;;;;;;;9.93;5.50;;;;;;;29.79;45.12;99287.59;4992550;28;20630;-73
2022/08/28 05:08:36;;;;;;;9.40;5.40;;;;;;;29.99;44.46;99289.63;4992751;28;20206;-71
2022/08/28 05:11:15;;;;;;;18.10;5.73;;;;;;;30.04;44.40;99283.19;4992318;28;20202;-72
2022/08/28 05:13:42;;;;;;;16.97;5.33;;;;;;;29.97;44.84;99288.34;4993099;28;20280;-72
2022/08/28 05:16:09;;;;;;;8.20;5.50;;;;;;;29.74;44.64;99284.22;4992301;28;20226;-72
2022/08/28 05:18:36;;;;;;;7.60;5.20;;;;;;;29.83;44.72;99288.56;4992516;28;20662;-72
2022/08/28 05:21:03;;;;;;;14.60;5.60;;;;;;;30.19;43.94;99286.19;4992577;28;20222;-72
2022/08/28 05:23:30;;;;;;;11.70;5.47;;;;;;;30.40;42.87;99286.25;4992357;28;20194;-73
2022/08/28 05:25:58;;;;;;;11.63;5.93;;;;;;;30.41;43.79;99283.16;4992647;28;20268;-73
2022/08/28 05:28:25;;;;;;;12.10;5.73;;;;;;;30.33;43.86;99292.25;4992430;28;20191;-72
2022/08/28 05:30:52;;;;;;;10.07;6.07;;;;;;;30.82;42.61;99298.94;4992652;28;20360;-73
2022/08/28 05:33:19;;;;;;;8.97;5.30;;;;;;;31.26;40.57;99304.59;4992604;28;20313;-73
2022/08/28 05:35:47;;;;;;;10.33;4.83;;;;;;;31.30;41.17;99300.03;4992602;28;20285;-74
2022/08/28 05:38:16;;;;;;;11.27;5.13;;;;;;;31.51;39.93;99300.81;4992619;28;20198;-74
2022/08/28 05:40:44;;;;;;;14.70;5.40;;;;;;;31.73;38.80;99308.66;4992145;28;20194;-74
2022/08/28 05:43:14;;;;;;;12.50;5.20;;;;;;;31.87;39.13;99308.38;4992808;28;20203;-72
2022/08/28 05:45:41;;;;;;;7.83;5.23;;;;;;;32.09;38.65;99306.00;4992135;28;20261;-74
2022/08/28 05:48:08;;;;;;;7.67;4.97;;;;;;;32.40;37.21;99311.81;4992238;28;20198;-72
2022/08/28 05:50:37;;;;;;;9.90;5.70;;;;;;;32.45;37.99;99308.81;4992439;28;20194;-73
2022/08/28 05:53:04;;;;;;;13.20;5.27;;;;;;;32.79;36.97;99310.28;4993238;28;20309;-73
2022/08/28 05:55:31;;;;;;;8.97;4.97;;;;;;;32.70;37.38;99310.41;4992080;28;20202;-73
2022/08/28 05:58:27;;;;;;;8.57;5.50;;;;;;;32.46;37.10;99299.41;4992569;28;20261;-74
2022/08/28 06:00:46;;;;;;;16.73;5.70;;;;;;;32.39;38.29;99307.47;4992202;28;20195;-72
2022/08/28 06:03:13;;;;;;;15.77;4.83;;;;;;;32.35;38.30;99309.28;5001096;28;20256;-74
2022/08/28 06:05:40;;;;;;;11.00;4.77;;;;;;;32.27;38.27;99307.44;5012634;28;20680;-73
2022/08/28 06:08:07;;;;;;;13.77;5.20;;;;;;;32.23;38.39;99306.50;5015711;28;20194;-74
2022/08/28 06:10:35;;;;;;;10.03;5.53;;;;;;;32.06;39.35;99303.94;5015114;28;20190;-74
2022/08/28 06:13:03;;;;;;;10.33;5.27;;;;;;;32.30;39.19;99308.72;5015500;28;20410;-74
2022/08/28 06:15:29;;;;;;;34.60;6.23;;;;;;;32.44;39.38;99312.72;5015486;28;20198;-70
2022/08/28 06:17:57;;;;;;;11.73;5.60;;;;;;;32.43;39.08;99311.13;5015208;28;20256;-72
2022/08/28 06:20:24;;;;;;;11.33;5.00;;;;;;;32.33;38.56;99310.75;5015010;28;20244;-73
2022/08/28 06:22:51;;;;;;;7.90;4.97;;;;;;;32.31;38.61;99307.56;5015088;28;20218;-74
2022/08/28 06:25:18;;;;;;;20.23;5.10;;;;;;;32.62;38.64;99311.34;5015336;28;20194;-73
2022/08/28 06:27:44;;;;;;;10.50;4.57;;;;;;;32.87;38.32;99307.44;5014869;28;20728;-74
2022/08/28 06:30:12;;;;;;;13.73;5.87;;;;;;;32.78;38.36;99312.25;5015358;28;20229;-74
2022/08/28 06:32:39;;;;;;;15.57;5.20;;;;;;;32.64;38.37;99311.00;5014832;28;20218;-74
2022/08/28 06:35:07;;;;;;;11.43;4.80;;;;;;;32.76;38.09;99309.03;5015458;28;20237;-74
2022/08/28 06:37:34;;;;;;;7.47;4.80;;;;;;;32.69;38.33;99314.31;5014711;28;20194;-74
2022/08/28 06:40:01;;;;;;;12.07;4.73;;;;;;;32.65;38.23;99313.41;5014951;28;20252;-74
2022/08/28 06:42:30;;;;;;;14.50;5.10;;;;;;;32.64;37.70;99317.31;5014882;28;20260;-74
2022/08/28 06:44:57;;;;;;;9.57;5.13;;;;;;;32.73;37.34;99317.16;5015530;28;20194;-70
2022/08/28 06:47:23;;;;;;;12.80;5.73;;;;;;;32.99;37.26;99315.66;5014486;28;20209;-74
2022/08/28 06:49:51;;;;;;;15.13;5.37;;;;;;;33.17;36.82;99311.50;5014820;28;20268;-74
2022/08/28 06:52:19;;;;;;;9.37;5.43;;;;;;;33.41;36.89;99301.56;5014347;28;20681;-74
2022/08/28 06:54:45;;;;;;;11.10;5.57;;;;;;;33.59;35.83;99303.66;5015590;28;20202;-75
2022/08/28 06:57:12;;;;;;;6.82;4.90;;;;;;;33.78;35.82;99311.25;5014752;28;20205;-73
2022/08/28 06:59:39;;;;;;;12.10;5.10;;;;;;;34.19;35.24;99313.56;5014616;28;20280;-75
2022/08/28 07:02:06;;;;;;;9.30;5.50;;;;;;;34.38;34.84;99319.19;5014802;28;20325;-75
2022/08/28 07:04:33;;;;;;;12.23;5.15;;;;;;;34.55;34.27;99305.84;4995346;28;20195;-77
2022/08/28 07:06:59;;;;;;;13.52;5.45;;;;;;;34.82;33.54;99309.66;4994480;28;20717;-76
2022/08/28 07:09:27;;;;;;;9.23;5.38;;;;;;;34.73;33.76;99314.50;4994428;28;20194;-77
2022/08/28 07:11:54;;;;;;;11.85;6.00;;;;;;;34.83;33.26;99308.47;4994648;28;20254;-77
2022/08/28 07:14:21;;;;;;;14.02;5.20;;;;;;;35.04;33.16;99314.47;4995281;28;20222;-79
2022/08/28 07:16:48;;;;;;;9.85;5.25;;;;;;;35.15;32.99;99309.97;4993766;28;20265;-79
2022/08/28 07:19:15;;;;;;;9.90;5.40;;;;;;;35.33;32.17;99313.94;4994875;28;20198;-80
2022/08/28 07:21:44;;;;;;;11.45;5.25;;;;;;;35.34;32.10;99307.25;4995075;28;20237;-79
2022/08/28 07:24:13;;;;;;;16.83;5.28;;;;;;;35.50;31.67;99307.97;4995116;28;20261;-80
2022/08/28 07:26:42;;;;;;;17.73;5.80;;;;;;;35.25;31.96;99315.72;4994524;28;20201;-78
2022/08/28 07:29:10;;;;;;;10.60;5.60;;;;;;;35.26;32.69;99308.22;4994388;28;20241;-76
2022/08/28 07:31:38;;;;;;;10.90;5.38;;;;;;;35.36;31.86;99311.22;4994668;28;20199;-79
2022/08/28 07:34:04;;;;;;;5.32;4.70;;;;;;;35.33;31.09;99306.47;4994831;28;20262;-80
2022/08/28 07:36:32;;;;;;;7.25;4.32;;;;;;;35.58;31.12;99310.50;4994555;28;20210;-80
2022/08/28 07:39:00;;;;;;;10.55;4.95;;;;;;;35.63;31.40;99303.88;4994906;28;20233;-79
2022/08/28 07:41:29;;;;;;;9.55;4.78;;;;;;;35.69;31.08;99299.66;4994140;28;20569;-75
2022/08/28 07:46:43;;;;;;;14.10;4.68;;;;;;;35.83;30.86;99306.28;4995007;28;20191;-78
2022/08/28 07:49:11;;;;;;;8.02;4.60;;;;;;;35.88;30.38;99300.44;4994499;28;20281;-78
2022/08/28 07:51:37;;;;;;;10.60;3.90;;;;;;;35.80;30.20;99300.69;4993699;28;20202;-79
2022/08/28 07:54:05;;;;;;;8.13;4.35;;;;;;;35.99;31.23;99301.44;4993620;28;20233;-77
2022/08/28 07:56:32;;;;;;;17.00;4.75;;;;;;;36.30;30.23;99300.41;4993818;28;20229;-75
2022/08/28 07:59:02;;;;;;;8.57;4.93;;;;;;;36.56;28.78;99297.66;4993648;28;20234;-76
2022/08/28 08:01:30;;;;;;;6.88;4.20;;;;;;;36.49;29.60;99290.06;4993460;28;20579;-75
2022/08/28 08:03:57;;;;;;;6.88;3.95;;;;;;;36.49;29.07;99295.59;5007614;28;20708;-75
2022/08/28 08:06:30;;;;;;;10.50;4.32;;;;;;;36.67;29.29;99298.63;5013640;28;20209;-75
2022/08/28 08:08:57;;;;;;;12.65;4.82;;;;;;;36.84;28.12;99292.56;5013047;28;20186;-75
2022/08/28 08:11:24;;;;;;;6.35;4.68;;;;;;;36.93;28.29;99285.59;5013274;28;20193;-76
2022/08/28 08:13:51;;;;;;;9.15;4.22;;;;;;;36.76;28.72;99285.34;5013165;28;20650;-75
2022/08/28 08:16:22;;;;;;;14.43;5.18;;;;;;;36.54;29.38;99289.72;5013255;28;20613;-75
2022/08/28 08:18:51;;;;;;;18.52;4.82;;;;;;;36.39;29.29;99281.59;5012855;28;20728;-76
2022/08/28 08:21:20;;;;;;;8.82;4.03;;;;;;;36.54;27.92;99288.94;5012655;28;20248;-74
2022/08/28 08:23:47;;;;;;;9.85;4.30;;;;;;;36.53;28.03;99290.09;5012523;28;20232;-74
2022/08/28 08:26:17;;;;;;;8.75;4.38;;;;;;;36.76;27.80;99277.03;5013241;28;20612;-76
2022/08/28 08:28:44;;;;;;;5.80;4.28;;;;;;;36.71;28.14;99274.59;5012117;28;20233;-75
2022/08/28 08:31:14;;;;;;;13.90;4.43;;;;;;;36.88;27.77;99279.56;5012964;28;20244;-75
2022/08/28 08:33:44;;;;;;;7.30;4.50;;;;;;;36.95;27.79;99277.69;5012688;28;20222;-76
2022/08/28 08:36:13;;;;;;;8.80;3.80;;;;;;;37.01;27.47;99269.84;5012671;28;20194;-76
2022/08/28 08:38:40;;;;;;;8.77;4.53;;;;;;;37.15;27.76;99278.41;5012443;28;20685;-76
2022/08/28 08:41:17;;;;;;;10.60;4.47;;;;;;;37.24;27.70;99273.34;5012954;28;20202;-76
2022/08/28 08:43:55;;;;;;;8.95;4.18;;;;;;;37.16;27.76;99274.44;5012800;28;20186;-76
2022/08/28 08:46:28;;;;;;;12.77;3.72;;;;;;;37.30;27.10;99276.59;5012272;28;20216;-75
2022/08/28 08:49:01;;;;;;;6.43;4.60;;;;;;;37.42;27.04;99271.59;5012721;28;20198;-76
2022/08/28 08:51:39;;;;;;;9.10;3.88;;;;;;;37.51;26.89;99271.28;5013180;28;20201;-75
2022/08/28 08:54:12;;;;;;;6.97;4.47;;;;;;;37.70;26.75;99258.06;5012619;28;20214;-76
2022/08/28 08:56:41;;;;;;;9.18;3.90;;;;;;;37.98;26.66;99268.63;5012860;28;20182;-75
2022/08/28 08:59:13;;;;;;;7.53;3.95;;;;;;;37.91;26.17;99266.56;5012615;28;20198;-72
2022/08/28 09:01:49;;;;;;;9.90;4.10;;;;;;;37.91;26.17;99265.75;5012731;28;20192;-72
2022/08/28 09:04:33;;;;;;;14.82;4.63;;;;;;;37.83;26.86;99264.09;4995277;28;20639;-75
2022/08/28 09:07:02;;;;;;;8.07;4.43;;;;;;;37.61;26.65;99256.75;4993933;28;20564;-75
2022/08/28 09:09:32;;;;;;;8.90;4.47;;;;;;;37.64;25.99;99265.09;4992627;28;20214;-75
2022/08/28 09:12:02;;;;;;;10.80;4.10;;;;;;;37.64;26.74;99250.47;4992556;28;20198;-76
2022/08/28 09:14:38;;;;;;;11.57;4.65;;;;;;;37.61;25.94;99254.81;4992333;28;20688;-74
2022/08/28 09:17:06;;;;;;;8.98;4.50;;;;;;;37.59;26.78;99251.59;4992850;28;20186;-75
2022/08/28 09:19:34;;;;;;;17.42;4.88;;;;;;;37.79;26.74;99246.66;4992610;28;20753;-75
2022/08/28 09:22:01;;;;;;;11.20;4.30;;;;;;;37.90;25.60;99248.34;4992320;28;20203;-75
2022/08/28 09:24:31;;;;;;;16.00;5.30;;;;;;;37.99;25.56;99243.25;4992439;28;20272;-73
2022/08/28 09:27:00;;;;;;;10.18;4.00;;;;;;;38.15;25.64;99246.59;4992585;28;20233;-75
2022/08/28 09:29:31;;;;;;;8.18;3.90;;;;;;;38.24;24.54;99244.28;4992176;28;20265;-75
2022/08/28 09:32:14;;;;;;;9.95;4.35;;;;;;;38.20;24.87;99237.91;4993416;28;20546;-72
2022/08/28 09:34:59;;;;;;;10.80;4.13;;;;;;;38.31;25.11;99233.25;4992511;28;20218;-74
2022/08/28 09:37:30;;;;;;;11.68;4.25;;;;;;;38.43;24.76;99234.91;4992622;28;20191;-73
2022/08/28 09:40:19;;;;;;;10.48;3.97;;;;;;;38.43;24.43;99238.50;4992257;28;20190;-75
2022/08/28 09:45:58;;;;;;;11.15;4.50;;;;;;;38.50;25.21;99230.22;4996367;28;20206;-75
2022/08/28 09:48:31;;;;;;;11.20;3.90;;;;;;;38.57;25.21;99224.72;4996122;28;20302;-75
2022/08/28 09:51:02;;;;;;;4.72;3.72;;;;;;;38.71;25.12;99224.81;4996187;28;20190;-74
2022/08/28 09:53:31;;;;;;;11.32;4.50;;;;;;;38.48;25.51;99229.81;4996171;28;20218;-73
2022/08/28 09:56:10;;;;;;;6.55;3.97;;;;;;;38.36;24.64;99224.56;4996036;28;20195;-73
2022/08/28 09:58:40;;;;;;;14.20;4.60;;;;;;;38.61;24.79;99224.75;4996417;28;20197;-73
2022/08/28 10:01:39;;;;;;;10.57;4.10;;;;;;;38.58;24.73;99225.53;4995943;28;20205;-72
2022/08/28 10:04:22;;;;;;;8.88;4.07;;;;;;;38.81;24.88;99223.25;5006500;28;20264;-73
2022/08/28 10:06:53;;;;;;;9.10;3.92;;;;;;;38.86;24.93;99211.78;5015172;28;20787;-72
2022/08/28 10:09:28;;;;;;;13.32;4.70;;;;;;;39.00;24.49;99226.56;5014965;28;20182;-73
2022/08/28 10:12:04;;;;;;;11.90;4.40;;;;;;;38.88;24.64;99218.53;5015321;28;20192;-73
2022/08/28 10:14:47;;;;;;;12.10;4.40;;;;;;;38.90;24.01;99216.19;5015285;28;20210;-73
2022/08/28 10:17:25;;;;;;;9.07;4.00;;;;;;;38.96;24.73;99213.81;5015458;28;20194;-73
2022/08/28 10:20:00;;;;;;;14.88;4.35;;;;;;;38.84;24.56;99211.38;5015191;28;20662;-73
2022/08/28 10:22:38;;;;;;;19.33;4.57;;;;;;;38.93;25.34;99209.03;5015109;28;20642;-73
2022/08/28 10:25:19;;;;;;;13.30;4.38;;;;;;;39.03;24.86;99209.09;5015125;28;20193;-74
2022/08/28 10:28:01;;;;;;;11.35;4.70;;;;;;;38.84;24.66;99211.38;5015952;28;20186;-75
2022/08/28 10:30:32;;;;;;;8.77;4.00;;;;;;;38.63;25.12;99203.72;5015772;28;20233;-74
2022/08/28 10:33:29;;;;;;;7.57;3.90;;;;;;;38.63;24.71;99206.50;5015349;28;20186;-75
2022/08/28 10:36:04;;;;;;;8.70;4.25;;;;;;;38.64;25.13;99202.53;5016095;28;20311;-75
2022/08/28 10:38:39;;;;;;;9.75;4.50;;;;;;;38.51;24.96;99198.50;5015597;28;20248;-74
2022/08/28 10:41:10;;;;;;;6.13;4.05;;;;;;;38.01;24.87;99195.72;5014638;28;20276;-75
2022/08/28 10:43:43;;;;;;;14.30;4.55;;;;;;;38.07;24.70;99189.44;5014505;28;20252;-75
2022/08/28 10:46:13;;;;;;;14.77;4.80;;;;;;;38.27;25.25;99188.00;5015411;28;20277;-75
2022/08/28 10:48:45;;;;;;;12.60;4.95;;;;;;;38.32;25.01;99187.63;5014588;28;20620;-75
2022/08/28 10:51:17;;;;;;;11.40;5.10;;;;;;;38.35;24.83;99173.00;5014726;28;20197;-74
2022/08/28 10:53:50;;;;;;;13.65;5.20;;;;;;;38.54;25.08;99181.06;5014265;28;20209;-74
2022/08/28 10:56:21;;;;;;;19.65;5.32;;;;;;;38.63;25.24;99178.75;5014141;28;20190;-74
2022/08/28 10:58:51;;;;;;;12.52;4.40;;;;;;;38.62;24.60;99171.56;5014363;28;20190;-75
2022/08/28 11:01:25;;;;;;;8.75;4.82;;;;;;;38.54;24.08;99167.16;5014319;28;20240;-75
2022/08/28 11:03:53;;;;;;;14.98;4.90;;;;;;;38.67;24.02;99174.00;5000906;28;20254;-74
2022/08/28 11:06:27;;;;;;;14.90;5.00;;;;;;;38.59;23.67;99169.59;4994377;28;20601;-74
2022/08/28 11:09:23;;;;;;;9.10;4.60;;;;;;;38.66;23.83;99166.84;4994663;28;20190;-73
2022/08/28 11:11:49;;;;;;;17.10;4.40;;;;;;;38.69;23.28;99166.06;4994425;28;20726;-73
2022/08/28 11:14:24;;;;;;;11.25;5.07;;;;;;;38.42;23.50;99159.16;4994398;28;20258;-74
2022/08/28 11:16:53;;;;;;;11.05;4.68;;;;;;;38.54;23.93;99158.84;4995790;28;20194;-74
2022/08/28 11:19:56;;;;;;;12.77;5.00;;;;;;;38.68;23.78;99156.13;4994854;28;20197;-74
2022/08/28 11:22:27;;;;;;;14.30;5.88;;;;;;;38.78;23.81;99152.59;4994966;28;20257;-75
2022/08/28 11:25:01;;;;;;;17.48;5.18;;;;;;;38.90;23.96;99155.06;4994799;28;20198;-74
2022/08/28 11:27:31;;;;;;;5.93;4.68;;;;;;;38.88;23.83;99154.63;4994821;28;20186;-75
2022/08/28 11:30:30;;;;;;;11.13;4.90;;;;;;;38.90;23.71;99151.47;4994531;28;20726;-73
2022/08/28 11:33:08;;;;;;;11.40;3.92;;;;;;;38.93;23.18;99151.50;4994268;28;20195;-76
2022/08/28 11:35:46;;;;;;;10.10;4.45;;;;;;;38.97;22.66;99149.53;4994158;28;20206;-74
2022/08/28 11:38:51;;;;;;;14.75;4.55;;;;;;;38.91;22.79;99147.53;4995336;28;20197;-73
2022/08/28 11:41:21;;;;;;;16.45;4.07;;;;;;;38.81;22.42;99146.25;4994318;28;20202;-74
2022/08/28 11:43:51;;;;;;;12.82;4.30;;;;;;;38.71;23.25;99140.69;4994967;28;20206;-73
2022/08/28 11:46:27;;;;;;;14.48;4.43;;;;;;;38.41;23.56;99148.44;4993895;28;20281;-75
2022/08/28 11:49:00;;;;;;;7.68;4.05;;;;;;;38.41;23.19;99132.56;4994652;28;20206;-76
2022/08/28 11:51:52;;;;;;;5.03;4.20;;;;;;;38.49;22.79;99145.31;4994739;28;20195;-74
2022/08/28 11:54:42;;;;;;;10.15;4.47;;;;;;;38.46;22.90;99129.41;4994269;28;20221;-76
2022/08/28 11:57:17;;;;;;;12.75;4.97;;;;;;;38.33;22.76;99144.81;4994714;28;20195;-74